Relampago, Texas
Current Conditions -  °F | °C
As of 12:15 AM on Monday 22 Dec 2014 (Local Time) from KT65 Reporting Station
Haze Haze  
Wind Chill: 61°   Ceiling: 2700
Heat Index: 61°   Visibility: 5mi
Dew Point: 58°   Wind: 6mph
Humidity: 88%   Direction: 190°S
Pressure: 29.87"   Gusts: NA
Location:  26.1456°N, 97.91°W
Report Text: KT65 220615Z AUTO 19005KT 5SM BR SCT007 OVC027 16/14 A2987 RMK AO2 T01630143
Loading
Personal Weather Stations






























Interactive Weather Map New forecast layout! Learn more

10-Day Weather Forecast

Advertisements
Track Severe Weather on mobile